createdAt,value
2023-05-23T00:02:26.593Z,15.97
2023-05-23T00:04:58.753Z,15.83
2023-05-23T00:07:27.169Z,15.72
2023-05-23T00:09:55.678Z,15.60
2023-05-23T00:12:24.234Z,15.46
2023-05-23T00:14:53.864Z,15.40
2023-05-23T00:17:25.807Z,15.39
2023-05-23T00:19:56.278Z,15.36
2023-05-23T00:22:25.053Z,15.32
2023-05-23T00:24:53.524Z,15.30
2023-05-23T00:27:22.008Z,15.28
2023-05-23T00:29:50.608Z,15.27
2023-05-23T00:32:19.102Z,15.23
2023-05-23T00:34:47.371Z,15.19
2023-05-23T00:37:16.571Z,15.15
2023-05-23T00:39:45.061Z,15.11
2023-05-23T00:42:13.381Z,15.08
2023-05-23T00:44:41.662Z,15.04
2023-05-23T00:47:11.350Z,14.98
2023-05-23T00:49:40.170Z,14.96
2023-05-23T00:52:08.557Z,14.94
2023-05-23T00:54:37.220Z,14.91
2023-05-23T00:57:05.859Z,14.89
2023-05-23T00:59:37.382Z,14.88
2023-05-23T01:02:06.218Z,14.87
2023-05-23T01:04:36.283Z,14.82
2023-05-23T01:07:04.661Z,14.69
2023-05-23T01:09:33.385Z,14.57
2023-05-23T01:12:07.388Z,14.50
2023-05-23T01:14:42.985Z,14.47
2023-05-23T01:17:18.025Z,14.48
2023-05-23T01:20:01.430Z,14.50
2023-05-23T01:22:42.238Z,14.49
2023-05-23T01:25:19.625Z,14.48
2023-05-23T01:28:19.976Z,14.49
2023-05-23T01:30:52.474Z,14.49
2023-05-23T01:33:22.263Z,14.47
2023-05-23T01:35:51.467Z,14.45
2023-05-23T01:38:19.632Z,14.43
2023-05-23T01:40:47.836Z,14.41
2023-05-23T01:43:16.360Z,14.40
2023-05-23T01:45:45.443Z,14.40
2023-05-23T01:48:16.338Z,14.38
2023-05-23T01:50:45.870Z,14.36
2023-05-23T01:53:17.698Z,14.33
2023-05-23T01:55:46.935Z,14.27
2023-05-23T01:58:15.701Z,14.24
2023-05-23T02:00:44.442Z,14.23
2023-05-23T02:03:13.351Z,14.23
2023-05-23T02:05:41.878Z,14.23
2023-05-23T02:08:10.400Z,14.23
2023-05-23T02:10:39.889Z,14.23
2023-05-23T02:13:08.179Z,14.19
2023-05-23T02:15:36.439Z,14.18
2023-05-23T02:18:06.749Z,14.17
2023-05-23T02:20:35.567Z,14.14
2023-05-23T02:23:06.652Z,14.12
2023-05-23T02:25:35.098Z,14.10
2023-05-23T02:28:03.790Z,14.06
2023-05-23T02:30:32.593Z,14.00
2023-05-23T02:33:06.594Z,13.99
2023-05-23T02:35:35.189Z,13.98
2023-05-23T02:38:03.502Z,13.93
2023-05-23T02:40:31.857Z,13.82
2023-05-23T02:43:00.345Z,13.77
2023-05-23T02:45:28.623Z,13.77
2023-05-23T02:47:57.076Z,13.70
2023-05-23T02:50:26.716Z,13.67
2023-05-23T02:52:54.936Z,13.68
2023-05-23T02:55:23.674Z,13.72
2023-05-23T02:57:52.702Z,13.78
2023-05-23T03:00:21.513Z,13.83
2023-05-23T03:02:53.293Z,13.89
2023-05-23T03:05:21.659Z,13.94
2023-05-23T03:07:52.163Z,13.93
2023-05-23T03:10:21.273Z,13.90
2023-05-23T03:12:49.483Z,13.94
2023-05-23T03:15:18.369Z,13.98
2023-05-23T03:17:47.471Z,14.00
2023-05-23T03:20:17.281Z,13.96
2023-05-23T03:22:46.056Z,13.92
2023-05-23T03:25:16.746Z,13.88
2023-05-23T03:27:45.798Z,13.90
2023-05-23T03:30:14.591Z,13.92
2023-05-23T03:32:43.227Z,13.95
2023-05-23T03:35:11.869Z,14.02
2023-05-23T03:37:40.666Z,14.08
2023-05-23T03:40:09.874Z,14.14
2023-05-23T03:42:39.700Z,14.20
2023-05-23T03:45:08.294Z,14.22
2023-05-23T03:47:37.450Z,14.25
2023-05-23T03:50:07.704Z,14.24
2023-05-23T03:52:37.446Z,14.23
2023-05-23T03:55:10.108Z,14.29
2023-05-23T03:57:38.716Z,14.37
2023-05-23T04:00:12.596Z,14.46
2023-05-23T04:02:46.552Z,14.53
2023-05-23T04:05:18.441Z,14.56
2023-05-23T04:07:47.272Z,14.54
2023-05-23T04:10:16.599Z,14.47
2023-05-23T04:12:45.081Z,14.45
2023-05-23T04:15:18.207Z,14.46
2023-05-23T04:17:53.970Z,14.49
2023-05-23T04:20:23.006Z,14.49
2023-05-23T04:22:52.142Z,14.46
2023-05-23T04:25:21.205Z,14.47
2023-05-23T04:28:17.892Z,14.43
2023-05-23T04:30:46.630Z,14.45
2023-05-23T04:33:15.623Z,14.48
2023-05-23T04:35:44.120Z,14.49
2023-05-23T04:38:13.929Z,14.50
2023-05-23T04:40:43.032Z,14.45
2023-05-23T04:43:34.039Z,14.35
2023-05-23T04:46:18.935Z,14.23
2023-05-23T04:48:50.882Z,14.15
2023-05-23T04:51:21.838Z,14.11
2023-05-23T04:53:56.507Z,14.10
2023-05-23T04:56:28.521Z,14.16
2023-05-23T04:58:57.291Z,14.27
2023-05-23T05:01:28.367Z,14.35
2023-05-23T05:03:56.817Z,14.48
2023-05-23T05:06:25.613Z,14.55
2023-05-23T05:08:54.453Z,14.59
2023-05-23T05:11:23.096Z,14.66
2023-05-23T05:13:51.247Z,14.74
2023-05-23T05:16:20.455Z,14.89
2023-05-23T05:18:51.929Z,15.06
2023-05-23T05:21:29.257Z,15.22
2023-05-23T05:24:00.181Z,15.35
2023-05-23T05:26:31.157Z,15.44
2023-05-23T05:28:59.985Z,15.51
2023-05-23T05:31:29.757Z,15.52
2023-05-23T05:33:58.206Z,15.55
2023-05-23T05:36:26.699Z,15.61
2023-05-23T05:38:57.332Z,15.66
2023-05-23T05:41:27.075Z,15.73
2023-05-23T05:43:55.843Z,15.80
2023-05-23T05:46:24.877Z,15.87
2023-05-23T05:48:54.454Z,15.92
2023-05-23T05:51:24.089Z,15.99
2023-05-23T05:53:52.553Z,16.00
2023-05-23T05:56:22.981Z,16.04
2023-05-23T05:58:51.279Z,16.08
2023-05-23T06:01:19.758Z,16.14
2023-05-23T06:03:48.346Z,16.22
2023-05-23T06:06:17.142Z,16.33
2023-05-23T06:08:45.762Z,16.43
2023-05-23T06:11:17.401Z,16.53
2023-05-23T06:13:46.700Z,16.60
2023-05-23T06:16:15.606Z,16.65
2023-05-23T06:18:45.204Z,16.68
2023-05-23T06:21:14.336Z,16.72
2023-05-23T06:23:43.231Z,16.76
2023-05-23T06:26:11.577Z,16.79
2023-05-23T06:28:40.480Z,16.85
2023-05-23T06:31:10.433Z,16.93
2023-05-23T06:33:39.005Z,17.01
2023-05-23T06:36:08.260Z,17.08
2023-05-23T06:38:37.184Z,17.17
2023-05-23T06:41:07.461Z,17.26
2023-05-23T06:43:37.237Z,17.31
2023-05-23T06:46:16.802Z,17.41
2023-05-23T06:48:45.255Z,17.50
2023-05-23T06:51:13.859Z,17.61
2023-05-23T06:53:42.860Z,17.71
2023-05-23T06:56:11.232Z,17.79
2023-05-23T06:58:47.439Z,17.91
2023-05-23T07:01:16.294Z,18.03
2023-05-23T07:03:48.973Z,18.17
2023-05-23T07:06:17.964Z,18.30
2023-05-23T07:08:47.078Z,18.41
2023-05-23T07:11:16.509Z,18.52
2023-05-23T07:13:47.850Z,18.66
2023-05-23T07:16:22.494Z,18.82
2023-05-23T07:19:03.133Z,18.95
2023-05-23T07:21:32.340Z,19.13
2023-05-23T07:24:00.804Z,19.31
2023-05-23T07:26:30.034Z,19.45
2023-05-23T07:28:58.961Z,19.59
2023-05-23T07:31:28.162Z,19.69
2023-05-23T07:33:59.618Z,19.76
2023-05-23T07:36:50.454Z,19.87
2023-05-23T07:39:23.843Z,20.01
2023-05-23T07:41:52.661Z,20.13
2023-05-23T07:44:24.962Z,20.24
2023-05-23T07:46:54.727Z,20.30
2023-05-23T07:49:23.712Z,20.38
2023-05-23T07:51:52.549Z,20.46
2023-05-23T07:54:21.022Z,20.53
2023-05-23T07:56:51.163Z,20.61
2023-05-23T07:59:19.968Z,20.72
2023-05-23T08:01:53.029Z,20.86
2023-05-23T08:04:27.176Z,21.03
2023-05-23T08:09:29.140Z,21.27
2023-05-23T08:11:58.166Z,21.45
2023-05-23T08:14:38.199Z,21.62
2023-05-23T08:17:21.635Z,21.77
2023-05-23T08:19:51.190Z,21.90
2023-05-23T08:22:20.226Z,22.05
2023-05-23T08:24:48.922Z,22.21
2023-05-23T08:27:17.818Z,22.45
2023-05-23T08:29:47.150Z,22.65
2023-05-23T08:32:16.179Z,22.90
2023-05-23T08:34:45.430Z,23.19
2023-05-23T08:37:14.017Z,23.46
2023-05-23T08:39:43.116Z,23.73
2023-05-23T08:42:30.100Z,23.99
2023-05-23T08:44:59.226Z,24.28
2023-05-23T08:47:29.470Z,24.54
2023-05-23T08:50:04.761Z,24.76
2023-05-23T08:52:34.101Z,24.94
2023-05-23T08:55:03.132Z,25.06
2023-05-23T08:57:32.096Z,25.14
2023-05-23T09:00:14.781Z,25.33
2023-05-23T09:02:45.111Z,25.43
2023-05-23T09:05:24.054Z,25.37
2023-05-23T09:07:55.158Z,25.27
2023-05-23T09:10:24.107Z,25.11
2023-05-23T09:12:52.914Z,24.87
2023-05-23T09:15:22.597Z,24.69
2023-05-23T09:17:51.073Z,24.53
2023-05-23T09:20:20.006Z,24.39
2023-05-23T09:22:55.663Z,24.27
2023-05-23T09:25:24.250Z,24.13
2023-05-23T09:27:54.662Z,23.98
2023-05-23T09:30:23.164Z,23.89
2023-05-23T09:33:04.729Z,23.84
2023-05-23T09:35:34.091Z,23.80
2023-05-23T09:38:02.467Z,23.76
2023-05-23T09:40:33.200Z,23.67
2023-05-23T09:43:04.938Z,23.63
2023-05-23T09:45:34.357Z,23.63
2023-05-23T09:48:03.677Z,23.61
2023-05-23T09:50:34.121Z,23.58
2023-05-23T09:53:04.110Z,23.55
2023-05-23T09:55:32.593Z,23.49
2023-05-23T09:58:01.570Z,23.48
2023-05-23T10:00:30.172Z,23.45
2023-05-23T10:03:14.918Z,23.41
2023-05-23T10:05:53.650Z,23.43
2023-05-23T10:08:39.229Z,23.45
2023-05-23T10:11:13.671Z,23.46
2023-05-23T10:13:47.338Z,23.52
2023-05-23T10:16:19.664Z,23.55
2023-05-23T10:18:56.958Z,23.64
2023-05-23T10:21:33.380Z,23.72
2023-05-23T10:24:04.350Z,23.80
2023-05-23T10:26:33.415Z,23.84
2023-05-23T10:29:03.154Z,23.93
2023-05-23T10:31:31.954Z,24.04
2023-05-23T10:34:14.272Z,24.17
2023-05-23T10:37:06.663Z,24.33
2023-05-23T10:40:17.942Z,24.46
2023-05-23T10:42:52.472Z,24.46
2023-05-23T10:45:22.822Z,24.44
2023-05-23T10:47:53.459Z,24.48
2023-05-23T10:50:37.488Z,24.53
2023-05-23T10:53:06.652Z,24.59
2023-05-23T10:55:37.197Z,24.69
2023-05-23T10:58:16.435Z,24.87
2023-05-23T11:00:55.240Z,25.02
2023-05-23T11:03:37.268Z,25.24
2023-05-23T11:06:06.085Z,25.49
2023-05-23T11:08:47.539Z,25.77
2023-05-23T11:11:16.931Z,26.19
2023-05-23T11:13:55.854Z,26.55
2023-05-23T11:16:27.839Z,26.69
2023-05-23T11:19:23.264Z,26.79
2023-05-23T11:21:54.370Z,26.90
2023-05-23T11:24:23.995Z,27.01
2023-05-23T11:27:03.037Z,27.07
2023-05-23T11:29:31.697Z,27.15
2023-05-23T11:32:19.934Z,27.32
2023-05-23T11:34:48.529Z,27.50
2023-05-23T11:37:18.187Z,27.61
2023-05-23T11:39:46.421Z,27.75
2023-05-23T11:42:15.023Z,28.07
2023-05-23T11:44:43.460Z,29.00
2023-05-23T11:47:12.098Z,30.19
2023-05-23T11:49:40.503Z,30.95
2023-05-23T11:52:08.776Z,31.36
2023-05-23T11:54:37.041Z,32.09
2023-05-23T11:57:08.400Z,33.27
2023-05-23T11:59:37.422Z,34.20
2023-05-23T12:02:07.596Z,34.30
2023-05-23T12:04:38.992Z,34.51
2023-05-23T12:07:07.998Z,34.32
2023-05-23T12:09:44.224Z,33.87
2023-05-23T12:12:14.198Z,33.43
2023-05-23T12:14:46.735Z,32.93
2023-05-23T12:17:15.625Z,32.51
2023-05-23T12:19:47.174Z,32.15
2023-05-23T12:22:15.461Z,31.78
2023-05-23T12:24:49.437Z,31.40
2023-05-23T12:27:18.816Z,31.17
2023-05-23T12:29:52.444Z,30.99
2023-05-23T12:32:25.410Z,30.78
2023-05-23T12:34:53.684Z,30.58
2023-05-23T12:37:22.359Z,30.40
2023-05-23T12:39:50.807Z,30.36
2023-05-23T12:42:19.427Z,30.37
2023-05-23T12:44:52.485Z,30.41
2023-05-23T12:47:21.170Z,30.45
2023-05-23T12:49:50.224Z,30.47
2023-05-23T12:52:18.389Z,30.59
2023-05-23T12:54:49.145Z,31.16
2023-05-23T12:57:17.620Z,32.54
2023-05-23T12:59:46.030Z,33.99
2023-05-23T13:02:14.390Z,35.22
2023-05-23T13:04:42.916Z,36.05
2023-05-23T13:07:13.998Z,37.07
2023-05-23T13:09:42.502Z,37.99
2023-05-23T13:12:12.519Z,38.80
2023-05-23T13:14:41.822Z,39.63
2023-05-23T13:17:10.057Z,40.28
2023-05-23T13:19:39.493Z,40.33
2023-05-23T13:22:10.781Z,40.09
2023-05-23T13:24:40.906Z,39.71
2023-05-23T13:27:09.445Z,39.72
2023-05-23T13:29:37.976Z,39.83
2023-05-23T13:32:06.815Z,39.99
2023-05-23T13:34:37.720Z,40.19
2023-05-23T13:37:06.327Z,39.81
2023-05-23T13:39:34.445Z,39.64
2023-05-23T13:42:02.968Z,39.71
2023-05-23T13:44:31.285Z,39.80
2023-05-23T13:47:12.788Z,40.07
2023-05-23T13:49:43.868Z,40.25
2023-05-23T13:52:12.472Z,40.51
2023-05-23T13:54:41.754Z,40.25
2023-05-23T13:57:09.979Z,39.87
2023-05-23T13:59:38.320Z,39.46
2023-05-23T14:02:08.398Z,39.41
2023-05-23T14:04:37.061Z,39.54
2023-05-23T14:07:05.343Z,39.00
2023-05-23T14:09:33.613Z,38.51
2023-05-23T14:12:02.104Z,38.30
2023-05-23T14:14:30.382Z,38.63
2023-05-23T14:16:58.973Z,39.27
2023-05-23T14:19:27.731Z,39.81
2023-05-23T14:21:56.456Z,40.33
2023-05-23T14:24:24.961Z,40.75
2023-05-23T14:26:53.647Z,40.98
2023-05-23T14:29:22.425Z,41.12
2023-05-23T14:31:50.671Z,40.47
2023-05-23T14:34:19.108Z,39.50
2023-05-23T14:36:47.476Z,38.43
2023-05-23T14:39:17.000Z,37.45
2023-05-23T14:41:47.115Z,37.40
2023-05-23T14:44:16.344Z,38.00
2023-05-23T14:46:48.618Z,38.54
2023-05-23T14:49:20.362Z,39.02
2023-05-23T14:51:51.257Z,39.41
2023-05-23T14:54:20.455Z,39.73
2023-05-23T14:56:50.528Z,39.98
2023-05-23T14:59:21.977Z,40.20
2023-05-23T15:01:50.397Z,40.60
2023-05-23T15:04:19.017Z,40.97
2023-05-23T15:06:47.536Z,41.32
2023-05-23T15:09:16.927Z,41.51
2023-05-23T15:11:46.919Z,41.65
2023-05-23T15:14:16.709Z,41.89
2023-05-23T15:16:46.029Z,42.10
2023-05-23T15:19:14.774Z,42.28
2023-05-23T15:21:51.177Z,42.40
2023-05-23T15:24:20.056Z,42.61
2023-05-23T15:26:49.142Z,42.71
2023-05-23T15:29:18.494Z,42.84
2023-05-23T15:31:47.373Z,42.68
2023-05-23T15:34:15.753Z,42.59
2023-05-23T15:36:43.946Z,41.95
2023-05-23T15:39:12.855Z,41.00
2023-05-23T15:41:41.306Z,40.31
2023-05-23T15:44:12.602Z,39.63
2023-05-23T15:46:43.658Z,39.19
2023-05-23T15:49:24.564Z,38.80
2023-05-23T15:51:55.644Z,38.52
2023-05-23T15:54:24.095Z,38.03
2023-05-23T15:56:52.475Z,37.41
2023-05-23T15:59:21.382Z,36.64
2023-05-23T16:01:49.714Z,35.98
2023-05-23T16:04:18.323Z,35.29
2023-05-23T16:06:46.859Z,34.52
2023-05-23T16:09:15.328Z,33.74
2023-05-23T16:11:43.579Z,32.94
2023-05-23T16:14:11.816Z,32.26
2023-05-23T16:16:40.153Z,31.54
2023-05-23T16:19:08.613Z,30.87
2023-05-23T16:21:37.052Z,30.46
2023-05-23T16:24:06.211Z,30.14
2023-05-23T16:26:34.697Z,29.80
2023-05-23T16:29:03.626Z,29.59
2023-05-23T16:31:32.185Z,29.43
2023-05-23T16:34:00.601Z,29.31
2023-05-23T16:36:29.312Z,29.20
2023-05-23T16:38:58.165Z,29.07
2023-05-23T16:41:26.600Z,28.88
2023-05-23T16:43:54.965Z,28.68
2023-05-23T16:46:23.739Z,28.50
2023-05-23T16:48:52.445Z,28.31
2023-05-23T16:51:20.728Z,28.12
2023-05-23T16:53:49.388Z,27.91
2023-05-23T16:56:17.469Z,27.75
2023-05-23T16:58:45.883Z,27.59
2023-05-23T17:01:15.794Z,27.45
2023-05-23T17:03:44.220Z,27.37
2023-05-23T17:06:12.773Z,27.30
2023-05-23T17:08:41.256Z,27.23
2023-05-23T17:11:09.664Z,27.04
2023-05-23T17:13:38.128Z,26.73
2023-05-23T17:16:06.649Z,26.54
2023-05-23T17:18:35.204Z,26.42
2023-05-23T17:21:03.816Z,26.26
2023-05-23T17:23:32.387Z,26.12
2023-05-23T17:26:01.403Z,25.92
2023-05-23T17:28:30.889Z,25.72
2023-05-23T17:30:59.372Z,25.55
2023-05-23T17:33:27.522Z,25.31
2023-05-23T17:35:56.165Z,25.09
2023-05-23T17:38:28.524Z,24.90
2023-05-23T17:40:57.075Z,24.76
2023-05-23T17:43:25.704Z,24.62
2023-05-23T17:45:55.727Z,24.48
2023-05-23T17:48:38.350Z,24.29
2023-05-23T17:51:14.388Z,24.08
2023-05-23T17:53:42.876Z,23.90
2023-05-23T17:56:11.178Z,23.73
2023-05-23T17:58:42.439Z,23.56
2023-05-23T18:01:13.788Z,23.41
2023-05-23T18:03:42.448Z,23.19
2023-05-23T18:06:10.805Z,22.99
2023-05-23T18:08:39.327Z,22.81
2023-05-23T18:11:10.432Z,22.66
2023-05-23T18:13:39.068Z,22.58
2023-05-23T18:16:08.160Z,22.50
2023-05-23T18:18:36.784Z,22.38
2023-05-23T18:21:06.600Z,22.24
2023-05-23T18:23:34.959Z,22.17
2023-05-23T18:26:03.777Z,22.11
2023-05-23T18:28:32.160Z,21.95
2023-05-23T18:31:01.776Z,21.77
2023-05-23T18:33:30.034Z,21.62
2023-05-23T18:35:58.343Z,21.50
2023-05-23T18:38:26.841Z,21.42
2023-05-23T18:40:55.181Z,21.34
2023-05-23T18:43:23.699Z,21.26
2023-05-23T18:45:54.613Z,21.17
2023-05-23T18:48:23.224Z,21.07
2023-05-23T18:50:52.414Z,20.97
2023-05-23T18:53:21.625Z,20.88
2023-05-23T18:55:53.581Z,20.82
2023-05-23T18:58:22.271Z,20.78
2023-05-23T19:00:51.031Z,20.73
2023-05-23T19:03:19.688Z,20.64
2023-05-23T19:05:48.058Z,20.54
2023-05-23T19:08:16.285Z,20.43
2023-05-23T19:10:44.762Z,20.33
2023-05-23T19:13:13.983Z,20.23
2023-05-23T19:15:42.589Z,20.16
2023-05-23T19:18:10.731Z,20.09
2023-05-23T19:20:41.362Z,20.01
2023-05-23T19:23:10.095Z,19.93
2023-05-23T19:25:39.606Z,19.88
2023-05-23T19:28:08.204Z,19.83
2023-05-23T19:30:38.591Z,19.75
2023-05-23T19:33:07.399Z,19.66
2023-05-23T19:35:35.681Z,19.54
2023-05-23T19:38:04.506Z,19.42
2023-05-23T19:40:33.013Z,19.23
2023-05-23T19:43:01.817Z,19.04
2023-05-23T19:45:30.427Z,18.97
2023-05-23T19:47:59.063Z,18.92
2023-05-23T19:50:27.614Z,18.86
2023-05-23T19:52:55.751Z,18.81
2023-05-23T19:55:24.520Z,18.70
2023-05-23T19:57:53.041Z,18.66
2023-05-23T20:00:21.806Z,18.60
2023-05-23T20:02:50.984Z,18.52
2023-05-23T20:05:19.913Z,18.48
2023-05-23T20:07:48.394Z,18.43
2023-05-23T20:10:16.708Z,18.40
2023-05-23T20:12:45.566Z,18.36
2023-05-23T20:15:16.045Z,18.29
2023-05-23T20:17:46.172Z,18.22
2023-05-23T20:20:14.792Z,18.18
2023-05-23T20:22:42.980Z,18.14
2023-05-23T20:25:11.799Z,18.09
2023-05-23T20:27:40.483Z,18.07
2023-05-23T20:30:12.743Z,18.02
2023-05-23T20:32:43.034Z,17.96
2023-05-23T20:35:11.387Z,17.92
2023-05-23T20:37:39.976Z,17.86
2023-05-23T20:40:09.714Z,17.83
2023-05-23T20:42:38.054Z,17.79
2023-05-23T20:45:08.613Z,17.72
2023-05-23T20:47:41.595Z,17.69
2023-05-23T20:50:12.741Z,17.61
2023-05-23T20:52:43.086Z,17.53
2023-05-23T20:55:11.542Z,17.45
2023-05-23T20:57:40.660Z,17.38
2023-05-23T21:00:13.409Z,17.35
2023-05-23T21:02:43.407Z,17.28
2023-05-23T21:05:12.710Z,17.20
2023-05-23T21:07:41.034Z,17.14
2023-05-23T21:10:11.566Z,17.08
2023-05-23T21:12:49.482Z,17.03
2023-05-23T21:15:18.921Z,17.01
2023-05-23T21:17:47.553Z,17.02
2023-05-23T21:20:16.367Z,17.01
2023-05-23T21:22:44.580Z,17.02
2023-05-23T21:25:12.927Z,17.04
2023-05-23T21:27:42.444Z,17.04
2023-05-23T21:30:11.647Z,16.94
2023-05-23T21:32:40.062Z,16.94
2023-05-23T21:35:09.278Z,16.96
2023-05-23T21:37:37.615Z,16.98
2023-05-23T21:40:07.089Z,16.98
2023-05-23T21:42:35.955Z,16.94
2023-05-23T21:45:05.039Z,16.92
2023-05-23T21:47:33.260Z,16.92
2023-05-23T21:50:04.289Z,16.91
2023-05-23T21:52:32.619Z,16.91
2023-05-23T21:55:01.123Z,16.88
2023-05-23T21:57:29.401Z,16.84
2023-05-23T21:59:57.676Z,16.82
2023-05-23T22:02:26.703Z,16.81
2023-05-23T22:04:55.276Z,16.75
2023-05-23T22:07:26.107Z,16.64
2023-05-23T22:09:56.549Z,16.59
2023-05-23T22:14:54.983Z,16.54
2023-05-23T22:17:26.620Z,16.51
2023-05-23T22:19:57.353Z,16.45
2023-05-23T22:22:25.630Z,16.34
2023-05-23T22:24:55.240Z,16.19
2023-05-23T22:27:23.821Z,16.05
2023-05-23T22:29:53.102Z,15.95
2023-05-23T22:32:21.518Z,15.72
2023-05-23T22:34:49.806Z,15.55
2023-05-23T22:37:18.186Z,15.54
2023-05-23T22:39:46.465Z,15.54
2023-05-23T22:42:15.156Z,15.57
2023-05-23T22:44:43.578Z,15.53
2023-05-23T22:47:13.903Z,15.47
2023-05-23T22:49:42.658Z,15.48
2023-05-23T22:52:11.112Z,15.51
2023-05-23T22:54:39.327Z,15.51
2023-05-23T22:57:07.545Z,15.49
2023-05-23T22:59:36.239Z,15.49
2023-05-23T23:02:06.475Z,15.51
2023-05-23T23:04:35.462Z,15.48
2023-05-23T23:07:04.016Z,15.43
2023-05-23T23:09:32.507Z,15.38
2023-05-23T23:12:01.405Z,15.36
2023-05-23T23:14:30.092Z,15.31
2023-05-23T23:16:59.669Z,15.26
2023-05-23T23:19:30.040Z,15.24
2023-05-23T23:21:58.426Z,15.20
2023-05-23T23:24:26.639Z,15.15
2023-05-23T23:26:55.289Z,15.09
2023-05-23T23:29:23.834Z,15.05
2023-05-23T23:31:53.070Z,15.04
2023-05-23T23:34:21.397Z,15.02
2023-05-23T23:36:49.645Z,15.02
2023-05-23T23:39:18.133Z,15.05
2023-05-23T23:41:46.513Z,15.07
2023-05-23T23:44:15.907Z,15.09
2023-05-23T23:46:44.405Z,15.11
2023-05-23T23:49:13.307Z,15.12
2023-05-23T23:51:41.684Z,15.13
2023-05-23T23:54:10.273Z,15.10
2023-05-23T23:56:38.564Z,15.03
2023-05-23T23:59:06.885Z,14.99
